createdAt,value
2019-04-05T00:00:35.750Z,75.20
2019-04-05T00:03:05.126Z,74.90
2019-04-05T00:05:34.861Z,75.10
2019-04-05T00:08:04.767Z,75.10
2019-04-05T00:10:34.421Z,75.70
2019-04-05T00:13:04.163Z,75.90
2019-04-05T00:15:34.034Z,75.10
2019-04-05T00:18:03.471Z,75.20
2019-04-05T00:20:32.959Z,76.40
2019-04-05T00:23:02.347Z,76.50
2019-04-05T00:25:32.070Z,76.50
2019-04-05T00:28:01.576Z,77.30
2019-04-05T00:30:30.983Z,77.50
2019-04-05T00:33:00.609Z,77.60
2019-04-05T00:35:31.273Z,76.60
2019-04-05T00:38:00.921Z,76.60
2019-04-05T00:40:30.161Z,76.40
2019-04-05T00:42:59.527Z,76.00
2019-04-05T00:45:28.974Z,76.60
2019-04-05T00:47:58.386Z,77.50
2019-04-05T00:50:27.486Z,78.10
2019-04-05T00:52:56.873Z,77.80
2019-04-05T00:55:26.200Z,76.90
2019-04-05T00:57:55.311Z,77.40
2019-04-05T01:00:24.820Z,78.20
2019-04-05T01:02:54.279Z,78.20
2019-04-05T01:05:23.998Z,78.30
2019-04-05T01:07:53.371Z,78.10
2019-04-05T01:10:21.711Z,78.10
2019-04-05T01:12:51.220Z,77.30
2019-04-05T01:15:21.011Z,78.20
2019-04-05T01:17:50.090Z,78.20
2019-04-05T01:20:19.437Z,78.10
2019-04-05T01:22:48.803Z,76.90
2019-04-05T01:25:18.855Z,77.60
2019-04-05T01:27:48.694Z,77.60
2019-04-05T01:30:18.225Z,77.20
2019-04-05T01:32:48.450Z,76.80
2019-04-05T01:35:17.749Z,76.60
2019-04-05T01:37:47.294Z,77.00
2019-04-05T01:40:16.608Z,78.10
2019-04-05T01:42:46.802Z,78.80
2019-04-05T01:45:15.874Z,78.90
2019-04-05T01:47:45.950Z,79.00
2019-04-05T01:50:15.721Z,77.90
2019-04-05T01:52:45.439Z,77.60
2019-04-05T01:55:14.640Z,77.30
2019-04-05T01:57:44.049Z,76.70
2019-04-05T02:00:13.780Z,76.20
2019-04-05T02:02:43.362Z,76.30
2019-04-05T02:05:12.988Z,76.90
2019-04-05T02:07:42.762Z,77.30
2019-04-05T02:10:13.746Z,77.40
2019-04-05T02:12:43.196Z,77.80
2019-04-05T02:15:23.612Z,77.20
2019-04-05T02:17:53.499Z,76.90
2019-04-05T02:20:24.203Z,77.20
2019-04-05T02:22:53.618Z,76.80
2019-04-05T02:25:23.074Z,76.50
2019-04-05T02:27:52.461Z,76.40
2019-04-05T02:30:21.600Z,76.50
2019-04-05T02:32:53.653Z,76.10
2019-04-05T02:35:23.362Z,75.80
2019-04-05T02:37:52.491Z,76.30
2019-04-05T02:40:23.201Z,76.60
2019-04-05T02:42:55.726Z,76.80
2019-04-05T02:45:27.570Z,77.00
2019-04-05T02:48:01.068Z,77.80
2019-04-05T02:50:32.480Z,77.80
2019-04-05T02:53:04.900Z,77.00
2019-04-05T02:55:35.441Z,76.80
2019-04-05T02:58:04.624Z,77.20
2019-04-05T03:00:34.787Z,77.80
2019-04-05T03:03:06.107Z,76.50
2019-04-05T03:05:36.374Z,76.10
2019-04-05T03:08:05.731Z,76.70
2019-04-05T03:11:08.821Z,77.20
2019-04-05T03:13:42.126Z,77.20
2019-04-05T03:16:17.578Z,77.20
2019-04-05T03:18:55.798Z,77.70
2019-04-05T03:21:27.635Z,77.20
2019-04-05T03:24:00.448Z,77.20
2019-04-05T03:26:33.607Z,77.60
2019-04-05T03:29:06.285Z,76.90
2019-04-05T03:31:36.879Z,76.50
2019-04-05T03:34:06.651Z,76.40
2019-04-05T03:36:36.858Z,77.00
2019-04-05T03:39:08.072Z,76.90
2019-04-05T03:41:38.040Z,76.50
2019-04-05T03:44:09.270Z,76.10
2019-04-05T03:46:55.218Z,76.40
2019-04-05T03:49:15.317Z,76.50
2019-04-05T03:51:46.052Z,76.40
2019-04-05T03:54:16.200Z,76.40
2019-04-05T03:56:46.214Z,76.40
2019-04-05T03:59:15.299Z,76.80
2019-04-05T04:01:45.392Z,77.30
2019-04-05T04:04:14.625Z,77.20
2019-04-05T04:06:46.396Z,77.40
2019-04-05T04:09:16.194Z,77.40
2019-04-05T04:11:49.135Z,78.00
2019-04-05T04:14:19.410Z,76.90
2019-04-05T04:16:49.847Z,76.90
2019-04-05T04:19:19.477Z,77.20
2019-04-05T04:22:28.486Z,77.30
2019-04-05T04:24:59.128Z,77.20
2019-04-05T04:27:30.293Z,76.20
2019-04-05T04:30:00.744Z,76.50
2019-04-05T04:32:32.816Z,77.10
2019-04-05T04:35:03.723Z,77.40
2019-04-05T04:37:35.812Z,78.00
2019-04-05T04:40:06.892Z,78.20
2019-04-05T04:42:38.423Z,77.60
2019-04-05T04:45:12.340Z,77.60
2019-04-05T04:47:41.827Z,77.80
2019-04-05T04:50:13.625Z,76.80
2019-04-05T04:52:44.394Z,76.50
2019-04-05T04:55:18.493Z,77.40
2019-04-05T04:57:51.070Z,77.70
2019-04-05T05:00:24.905Z,78.00
2019-04-05T05:02:58.088Z,78.20
2019-04-05T05:05:31.074Z,78.00
2019-04-05T05:08:01.579Z,78.00
2019-04-05T05:10:34.168Z,78.30
2019-04-05T05:13:09.738Z,79.80
2019-04-05T05:15:43.995Z,80.40
2019-04-05T05:18:13.255Z,80.40
2019-04-05T05:20:43.527Z,81.20
2019-04-05T05:23:12.881Z,81.10
2019-04-05T05:25:47.077Z,82.10
2019-04-05T05:28:16.886Z,82.20
2019-04-05T05:30:46.459Z,82.60
2019-04-05T05:33:16.829Z,81.60
2019-04-05T05:35:46.410Z,82.00
2019-04-05T05:38:16.941Z,82.70
2019-04-05T05:40:45.988Z,82.80
2019-04-05T05:43:15.922Z,82.90
2019-04-05T05:45:45.049Z,83.20
2019-04-05T05:48:14.746Z,82.30
2019-04-05T05:50:45.393Z,82.10
2019-04-05T05:53:15.099Z,81.60
2019-04-05T05:55:44.471Z,81.50
2019-04-05T05:58:23.536Z,81.80
2019-04-05T06:00:54.785Z,82.30
2019-04-05T06:03:24.480Z,81.20
2019-04-05T06:06:03.650Z,81.40
2019-04-05T06:08:28.882Z,81.50
2019-04-05T06:10:57.020Z,81.70
2019-04-05T06:13:27.026Z,81.50
2019-04-05T06:15:58.559Z,80.90
2019-04-05T06:18:28.233Z,80.50
2019-04-05T06:20:57.986Z,81.40
2019-04-05T06:23:33.522Z,82.30
2019-04-05T06:26:01.665Z,83.10
2019-04-05T06:28:31.102Z,83.70
2019-04-05T06:31:00.820Z,84.10
2019-04-05T06:33:31.904Z,84.30
2019-04-05T06:36:01.574Z,84.40
2019-04-05T06:38:31.878Z,84.30
2019-04-05T06:41:01.324Z,84.40
2019-04-05T06:43:30.425Z,85.30
2019-04-05T06:46:00.461Z,85.40
2019-04-05T06:48:32.652Z,86.00
2019-04-05T06:51:02.923Z,86.60
2019-04-05T06:53:34.134Z,87.20
2019-04-05T06:56:03.575Z,87.10
2019-04-05T06:58:33.076Z,87.30
2019-04-05T07:01:02.884Z,87.50
2019-04-05T07:03:33.118Z,87.60
2019-04-05T07:06:04.658Z,87.00
2019-04-05T07:08:35.934Z,87.10
2019-04-05T07:11:06.915Z,87.00
2019-04-05T07:13:36.537Z,86.90
2019-04-05T07:16:05.935Z,86.90
2019-04-05T07:18:36.335Z,87.60
2019-04-05T07:21:06.014Z,88.10
2019-04-05T07:23:35.387Z,88.30
2019-04-05T07:26:05.411Z,88.70
2019-04-05T07:28:37.703Z,88.70
2019-04-05T07:31:06.814Z,89.50
2019-04-05T07:33:36.310Z,90.10
2019-04-05T07:36:05.511Z,90.10
2019-04-05T07:38:34.739Z,89.40
2019-04-05T07:41:03.831Z,89.20
2019-04-05T07:43:33.812Z,88.90
2019-04-05T07:46:03.349Z,89.50
2019-04-05T07:48:44.240Z,89.60
2019-04-05T07:51:03.608Z,88.70
2019-04-05T07:53:33.367Z,87.20
2019-04-05T07:56:02.861Z,87.60
2019-04-05T07:58:32.282Z,87.00
2019-04-05T08:01:05.027Z,86.90
2019-04-05T08:03:34.500Z,87.20
2019-04-05T08:06:03.647Z,87.10
2019-04-05T08:08:52.057Z,87.00
2019-04-05T08:11:22.764Z,87.40
2019-04-05T08:13:55.042Z,86.90
2019-04-05T08:16:24.694Z,87.00
2019-04-05T08:18:57.933Z,86.60
2019-04-05T08:21:25.154Z,85.60
2019-04-05T08:23:55.617Z,84.60
2019-04-05T08:26:24.806Z,84.00
2019-04-05T08:28:54.422Z,84.50
2019-04-05T08:31:24.540Z,84.60
2019-04-05T08:33:54.079Z,83.40
2019-04-05T08:36:23.222Z,82.40
2019-04-05T08:38:54.141Z,82.30
2019-04-05T08:41:25.467Z,81.50
2019-04-05T08:43:54.978Z,81.50
2019-04-05T08:46:24.747Z,81.00
2019-04-05T08:48:54.486Z,80.90
2019-04-05T08:51:23.841Z,81.60
2019-04-05T08:53:53.255Z,81.40
2019-04-05T08:56:24.283Z,80.60
2019-04-05T08:58:53.519Z,80.60
2019-04-05T09:01:22.600Z,81.00
2019-04-05T09:03:52.011Z,80.80
2019-04-05T09:06:21.407Z,80.30
2019-04-05T09:09:06.467Z,80.80
2019-04-05T09:11:36.004Z,80.00
2019-04-05T09:14:05.096Z,79.10
2019-04-05T09:16:34.874Z,79.50
2019-04-05T09:19:04.231Z,79.20
2019-04-05T09:21:33.670Z,79.00
2019-04-05T09:24:03.379Z,78.00
2019-04-05T09:26:33.113Z,77.60
2019-04-05T09:29:02.453Z,76.80
2019-04-05T09:31:32.087Z,77.10
2019-04-05T09:34:01.693Z,76.50
2019-04-05T09:36:30.833Z,77.30
2019-04-05T09:39:00.405Z,76.90
2019-04-05T09:41:29.443Z,76.70
2019-04-05T09:43:58.890Z,77.50
2019-04-05T09:46:28.299Z,77.40
2019-04-05T09:48:57.704Z,76.40
2019-04-05T09:51:27.387Z,76.10
2019-04-05T09:53:57.092Z,75.20
2019-04-05T09:56:26.580Z,76.00
2019-04-05T09:58:55.998Z,76.30
2019-04-05T10:01:25.896Z,76.30
2019-04-05T10:03:55.297Z,76.50
2019-04-05T10:06:24.724Z,76.50
2019-04-05T10:08:53.949Z,75.50
2019-04-05T10:11:22.086Z,75.30
2019-04-05T10:13:52.720Z,75.00
2019-04-05T10:16:22.694Z,74.30
2019-04-05T10:18:54.083Z,72.60
2019-04-05T10:21:24.078Z,72.20
2019-04-05T10:23:53.505Z,71.20
2019-04-05T10:26:22.989Z,71.20
2019-04-05T10:28:53.406Z,69.20
2019-04-05T10:31:22.878Z,68.70
2019-04-05T10:33:53.238Z,70.70
2019-04-05T10:36:25.617Z,71.00
2019-04-05T10:38:55.324Z,70.30
2019-04-05T10:41:25.189Z,69.50
2019-04-05T10:43:58.243Z,70.10
2019-04-05T10:46:27.609Z,69.50
2019-04-05T10:48:58.737Z,67.70
2019-04-05T10:51:30.398Z,66.90
2019-04-05T10:54:00.273Z,66.80
2019-04-05T10:56:29.812Z,66.80
2019-04-05T10:58:58.907Z,66.20
2019-04-05T11:01:28.627Z,64.90
2019-04-05T11:03:58.061Z,65.40
2019-04-05T11:06:29.564Z,64.20
2019-04-05T11:08:58.074Z,63.40
2019-04-05T11:11:26.094Z,63.50
2019-04-05T11:13:54.879Z,62.90
2019-04-05T11:16:23.293Z,61.80
2019-04-05T11:18:51.726Z,61.80
2019-04-05T11:21:20.571Z,59.60
2019-04-05T11:23:49.994Z,60.70
2019-04-05T11:26:30.655Z,62.90
2019-04-05T11:28:55.241Z,63.40
2019-04-05T11:31:24.865Z,61.30
2019-04-05T11:33:53.386Z,60.80
2019-04-05T11:36:21.965Z,60.60
2019-04-05T11:38:51.063Z,60.40
2019-04-05T11:41:19.942Z,60.70
2019-04-05T11:43:49.836Z,60.60
2019-04-05T11:46:18.576Z,61.20
2019-04-05T11:48:48.450Z,60.90
2019-04-05T11:51:16.671Z,61.80
2019-04-05T11:53:45.048Z,62.20
2019-04-05T11:56:15.115Z,62.80
2019-04-05T11:58:48.639Z,62.40
2019-04-05T12:01:24.169Z,62.60
2019-04-05T12:03:53.604Z,62.70
2019-04-05T12:06:22.092Z,61.60
2019-04-05T12:08:50.178Z,60.80
2019-04-05T12:11:18.671Z,60.60
2019-04-05T12:13:47.739Z,60.70
2019-04-05T12:16:16.766Z,61.00
2019-04-05T12:18:45.660Z,61.10
2019-04-05T12:21:14.007Z,60.40
2019-04-05T12:23:42.329Z,60.00
2019-04-05T12:26:11.418Z,60.10
2019-04-05T12:28:42.542Z,60.20
2019-04-05T12:31:11.054Z,58.80
2019-04-05T12:33:40.493Z,58.90
2019-04-05T12:36:08.915Z,58.20
2019-04-05T12:38:37.707Z,59.40
2019-04-05T12:41:06.569Z,59.20
2019-04-05T12:43:37.184Z,59.00
2019-04-05T12:46:06.450Z,59.20
2019-04-05T12:48:37.025Z,60.10
2019-04-05T12:51:07.570Z,60.30
2019-04-05T12:53:37.130Z,61.10
2019-04-05T12:56:06.440Z,60.70
2019-04-05T12:58:38.649Z,59.90
2019-04-05T13:01:08.518Z,60.20
2019-04-05T13:03:37.880Z,60.10
2019-04-05T13:06:07.026Z,59.60
2019-04-05T13:08:36.807Z,58.70
2019-04-05T13:11:05.942Z,57.60
2019-04-05T13:13:35.896Z,56.70
2019-04-05T13:16:05.266Z,56.40
2019-04-05T13:18:36.057Z,57.20
2019-04-05T13:21:14.354Z,57.60
2019-04-05T13:23:36.604Z,57.10
2019-04-05T13:26:06.007Z,57.30
2019-04-05T13:28:36.390Z,57.80
2019-04-05T13:31:06.490Z,57.80
2019-04-05T13:33:37.018Z,58.50
2019-04-05T13:36:08.414Z,59.20
2019-04-05T13:38:38.619Z,58.90
2019-04-05T13:41:07.778Z,58.40
2019-04-05T13:43:37.233Z,58.50
2019-04-05T13:46:06.515Z,58.20
2019-04-05T13:48:37.659Z,58.00
2019-04-05T13:51:07.414Z,58.10
2019-04-05T13:53:38.425Z,58.90
2019-04-05T13:56:10.991Z,59.20
2019-04-05T13:58:40.106Z,58.70
2019-04-05T14:01:11.386Z,58.30
2019-04-05T14:03:42.695Z,58.80
2019-04-05T14:06:12.548Z,59.50
2019-04-05T14:08:47.052Z,59.10
2019-04-05T14:11:16.293Z,58.50
2019-04-05T14:13:45.767Z,57.90
2019-04-05T14:16:15.284Z,57.70
2019-04-05T14:18:49.419Z,57.20
2019-04-05T14:21:16.373Z,57.50
2019-04-05T14:23:46.227Z,57.90
2019-04-05T14:26:15.322Z,58.10
2019-04-05T14:28:44.657Z,58.10
2019-04-05T14:31:17.499Z,59.00
2019-04-05T14:33:46.648Z,58.30
2019-04-05T14:36:15.914Z,58.40
2019-04-05T14:38:45.391Z,59.50
2019-04-05T14:41:14.563Z,59.90
2019-04-05T14:43:44.923Z,59.90
2019-04-05T14:46:14.734Z,59.60
2019-04-05T14:48:44.071Z,59.80
2019-04-05T14:51:13.899Z,60.00
2019-04-05T14:53:42.617Z,59.70
2019-04-05T14:56:11.369Z,60.40
2019-04-05T14:58:40.527Z,60.40
2019-04-05T15:01:19.040Z,59.70
2019-04-05T15:03:48.946Z,59.20
2019-04-05T15:06:18.685Z,59.50
2019-04-05T15:08:48.035Z,59.10
2019-04-05T15:11:18.061Z,59.00
2019-04-05T15:13:48.098Z,58.90
2019-04-05T15:16:18.229Z,58.20
2019-04-05T15:18:47.965Z,58.60
2019-04-05T15:21:20.953Z,59.00
2019-04-05T15:23:50.829Z,59.20
2019-04-05T15:26:21.550Z,59.50
2019-04-05T15:28:54.746Z,59.50
2019-04-05T15:31:26.482Z,60.30
2019-04-05T15:33:58.402Z,61.00
2019-04-05T15:36:29.421Z,60.10
2019-04-05T15:39:06.184Z,60.00
2019-04-05T15:41:36.936Z,60.50
2019-04-05T15:44:06.737Z,60.90
2019-04-05T15:46:37.430Z,60.90
2019-04-05T15:49:06.683Z,61.70
2019-04-05T15:51:38.566Z,62.70
2019-04-05T15:54:08.641Z,62.80
2019-04-05T15:56:38.071Z,63.00
2019-04-05T15:59:08.242Z,63.70
2019-04-05T16:01:37.981Z,64.00
2019-04-05T16:04:07.605Z,64.40
2019-04-05T16:06:39.043Z,63.50
2019-04-05T16:09:11.567Z,63.30
2019-04-05T16:11:41.173Z,63.40
2019-04-05T16:14:12.839Z,63.80
2019-04-05T16:16:42.346Z,64.60
2019-04-05T16:19:11.705Z,65.00
2019-04-05T16:21:41.237Z,65.50
2019-04-05T16:24:11.036Z,65.50
2019-04-05T16:26:40.747Z,65.60
2019-04-05T16:29:11.227Z,66.10
2019-04-05T16:31:41.195Z,66.40
2019-04-05T16:34:11.355Z,66.20
2019-04-05T16:36:40.234Z,66.80
2019-04-05T16:39:15.282Z,67.00
2019-04-05T16:41:45.321Z,66.90
2019-04-05T16:44:15.354Z,67.10
2019-04-05T16:46:44.863Z,67.60
2019-04-05T16:49:14.360Z,68.50
2019-04-05T16:51:43.570Z,67.80
2019-04-05T16:54:14.102Z,68.00
2019-04-05T16:56:43.874Z,68.10
2019-04-05T16:59:13.163Z,68.30
2019-04-05T17:01:42.591Z,69.70
2019-04-05T17:04:12.403Z,70.00
2019-04-05T17:06:41.911Z,70.20
2019-04-05T17:09:11.162Z,70.40
2019-04-05T17:11:41.662Z,69.90
2019-04-05T17:14:12.245Z,69.80
2019-04-05T17:16:45.472Z,69.90
2019-04-05T17:19:16.539Z,68.60
2019-04-05T17:21:48.053Z,69.70
2019-04-05T17:24:53.263Z,69.90
2019-04-05T17:27:22.818Z,70.50
2019-04-05T17:29:52.794Z,70.70
2019-04-05T17:32:23.272Z,71.00
2019-04-05T17:34:53.300Z,72.00
2019-04-05T17:37:26.431Z,71.40
2019-04-05T17:39:54.358Z,71.60
2019-04-05T17:42:24.315Z,71.30
2019-04-05T17:44:53.842Z,71.40
2019-04-05T17:47:25.332Z,71.70
2019-04-05T17:49:54.920Z,71.70
2019-04-05T17:52:24.142Z,71.90
2019-04-05T17:54:54.118Z,72.10
2019-04-05T17:57:23.536Z,72.10
2019-04-05T17:59:53.791Z,72.40
2019-04-05T18:02:23.230Z,72.80
2019-04-05T18:04:54.740Z,72.70
2019-04-05T18:07:24.336Z,73.10
2019-04-05T18:09:55.015Z,73.20
2019-04-05T18:12:24.250Z,73.40
2019-04-05T18:15:20.006Z,73.30
2019-04-05T18:17:50.176Z,73.20
2019-04-05T18:20:19.738Z,73.70
2019-04-05T18:22:49.509Z,73.80
2019-04-05T18:25:18.635Z,74.10
2019-04-05T18:27:48.676Z,73.80
2019-04-05T18:30:17.965Z,74.20
2019-04-05T18:32:52.735Z,74.60
2019-04-05T18:35:22.354Z,74.30
2019-04-05T18:37:52.975Z,74.60
2019-04-05T18:40:22.093Z,74.60
2019-04-05T18:42:52.054Z,74.70
2019-04-05T18:45:21.663Z,74.60
2019-04-05T18:47:52.389Z,74.80
2019-04-05T18:50:22.238Z,75.00
2019-04-05T18:52:51.550Z,75.00
2019-04-05T18:55:21.280Z,75.00
2019-04-05T18:57:51.455Z,75.40
2019-04-05T19:00:21.413Z,75.50
2019-04-05T19:02:51.341Z,75.40
2019-04-05T19:05:21.764Z,75.50
2019-04-05T19:07:51.706Z,76.00
2019-04-05T19:10:22.176Z,75.10
2019-04-05T19:12:52.222Z,75.50
2019-04-05T19:15:23.704Z,75.90
2019-04-05T19:17:53.267Z,76.00
2019-04-05T19:20:24.824Z,76.20
2019-04-05T19:22:54.381Z,76.60
2019-04-05T19:25:23.936Z,76.70
2019-04-05T19:27:54.097Z,76.60
2019-04-05T19:50:35.336Z,78.10
2019-04-05T19:53:05.688Z,78.30
2019-04-05T19:55:36.368Z,78.50
2019-04-05T19:58:05.763Z,78.60
2019-04-05T20:00:35.127Z,78.50
2019-04-05T20:03:05.106Z,78.60
2019-04-05T20:05:35.719Z,78.60
2019-04-05T20:08:04.847Z,78.70
2019-04-05T20:10:34.177Z,78.90
2019-04-05T20:13:03.333Z,79.20
2019-04-05T20:15:32.750Z,79.30
2019-04-05T20:18:02.260Z,79.40
2019-04-05T20:20:32.436Z,79.20
2019-04-05T20:23:02.158Z,79.10
2019-04-05T20:25:31.932Z,79.30
2019-04-05T20:28:01.714Z,79.30
2019-04-05T20:30:31.712Z,79.60
2019-04-05T20:32:59.957Z,79.70
2019-04-05T20:35:28.448Z,79.80
2019-04-05T20:37:56.809Z,79.80
2019-04-05T20:40:25.307Z,79.60
2019-04-05T20:42:54.883Z,79.80
2019-04-05T20:45:25.026Z,79.90
2019-04-05T20:47:53.145Z,80.00
2019-04-05T20:50:21.634Z,79.80
2019-04-05T20:52:51.063Z,80.20
2019-04-05T20:55:20.273Z,80.10
2019-04-05T20:57:50.121Z,79.90
2019-04-05T21:00:20.062Z,79.40
2019-04-05T21:02:49.391Z,79.30
2019-04-05T21:05:25.616Z,79.10
2019-04-05T21:07:52.191Z,78.60
2019-04-05T21:10:21.797Z,78.60
2019-04-05T21:12:50.887Z,78.40
2019-04-05T21:15:20.391Z,77.90
2019-04-05T21:17:49.878Z,77.80
2019-04-05T21:20:19.276Z,77.70
2019-04-05T21:22:48.481Z,77.50
2019-04-05T21:25:17.952Z,77.50
2019-04-05T21:27:47.408Z,76.90
2019-04-05T21:30:16.745Z,76.40
2019-04-05T21:32:48.870Z,76.10
2019-04-05T21:35:18.056Z,76.30
2019-04-05T21:37:48.266Z,76.20
2019-04-05T21:40:18.242Z,76.30
2019-04-05T21:42:49.975Z,76.20
2019-04-05T21:45:19.811Z,76.20
2019-04-05T21:47:48.958Z,76.20
2019-04-05T21:50:22.323Z,76.60
2019-04-05T21:52:51.495Z,77.30
2019-04-05T21:55:21.175Z,77.70
2019-04-05T21:57:50.516Z,77.40
2019-04-05T22:00:27.555Z,77.70
2019-04-05T22:02:56.816Z,77.80
2019-04-05T22:05:26.195Z,77.80
2019-04-05T22:07:55.894Z,77.40
2019-04-05T22:10:24.964Z,77.20
2019-04-05T22:12:54.160Z,77.10
2019-04-05T22:15:23.558Z,77.00
2019-04-05T22:17:56.352Z,77.10
2019-04-05T22:20:25.639Z,77.30
2019-04-05T22:22:55.240Z,77.80
2019-04-05T22:25:27.351Z,77.60
2019-04-05T22:27:58.199Z,77.60
2019-04-05T22:30:27.976Z,76.50
2019-04-05T22:33:00.820Z,76.50
2019-04-05T22:35:30.217Z,76.90
2019-04-05T22:37:59.476Z,77.20
2019-04-05T22:40:30.801Z,77.50
2019-04-05T22:43:05.527Z,77.30
2019-04-05T22:45:40.449Z,77.10
2019-04-05T22:48:10.077Z,77.20
2019-04-05T22:50:42.326Z,77.30
2019-04-05T22:53:12.187Z,77.10
2019-04-05T22:55:41.852Z,76.60
2019-04-05T22:58:14.656Z,77.00
2019-04-05T23:00:44.714Z,76.90
2019-04-05T23:03:14.556Z,77.00
2019-04-05T23:05:44.877Z,76.90
2019-04-05T23:08:15.102Z,76.40
2019-04-05T23:10:45.150Z,76.70
2019-04-05T23:13:14.674Z,77.00
2019-04-05T23:15:45.762Z,76.80
2019-04-05T23:18:19.789Z,76.80
2019-04-05T23:20:51.039Z,76.50
2019-04-05T23:23:20.838Z,76.60
2019-04-05T23:25:49.992Z,76.30
2019-04-05T23:28:19.094Z,76.30
2019-04-05T23:30:50.859Z,76.20
2019-04-05T23:33:21.531Z,76.30
2019-04-05T23:35:54.328Z,76.30
2019-04-05T23:38:23.614Z,76.40
2019-04-05T23:40:52.881Z,75.60
2019-04-05T23:43:22.478Z,75.30
2019-04-05T23:45:52.195Z,74.90
2019-04-05T23:48:21.744Z,74.90
2019-04-05T23:50:51.181Z,75.30
2019-04-05T23:53:21.174Z,75.20
2019-04-05T23:55:50.567Z,75.50
2019-04-05T23:58:20.004Z,75.50
